Fall River Mills, CA (96028)

8:56 AM PDT on September 18, 2014 (GMT -0700)
Glenburn | Change Station
CLOSE
Current Station
Personal Weather Station
Location: Fall River Mills, CA
Elevation: 3347 ft
Nearby Weather Stations

Elev 3347 ft 41.08 °N, 121.54 °W | Updated 2 seconds ago

Mostly Cloudy
Mostly Cloudy
64.4 °F
Feels Like 64.4 °F
N
2.3
Wind Variable Wind from NW
Gusts 0.0 mph

Today
High -- | Low -- °F
--% Chance of Precip.
Yesterday
High -- | Low -- °F
Precip. -- in
6:49 AM 7:09 PM
Waning Crescent, 26% visible
Pressure 29.88 in
Visibility 6.0 miles
Clouds Mostly Cloudy 900 ft
Mostly Cloudy 1600 ft
Overcast 2500 ft
Dew Point 48 °F
Humidity 55%
Rainfall 0.00 in
Snow Depth 1 in , 1 in , 0 in
UV 0 out of 12
Pollen 4.40 out of 12
Air Quality Not available.
Flu Activity Not available.
METAR KMHS 181456Z AUTO VRB03KT 6SM -RA BR BKN009 BKN016 OVC025 14/13 A2989 RMK AO2 SLP117 P0002 60008 T01390133 53017

More Conditions Fewer Conditions

Pressure 29.88 in
Visibility 6.0 miles
Clouds Mostly Cloudy 900 ft
Mostly Cloudy 1600 ft
Overcast 2500 ft
Dew Point 48 °F
Humidity 55%
Rainfall 0.00 in
Snow Depth 1 in , 1 in , 0 in
UV 0 out of 12
Pollen 4.40 out of 12
Air Quality Not available.
Flu Activity Not available.
METAR KMHS 181456Z AUTO VRB03KT 6SM -RA BR BKN009 BKN016 OVC025 14/13 A2989 RMK AO2 SLP117 P0002 60008 T01390133 53017

More Conditions Fewer Conditions

10-Day Weather Forecast

Almanac

Astronomy

Sep. 18, 2014 Rise Set
Actual Time 6:49 AM PDT 7:09 PM PDT
Civil Twilight 6:22 AM PDT 7:37 PM PDT
Nautical Twilight 5:49 AM PDT 8:09 PM PDT
Astronomical Twilight 5:16 AM PDT 8:42 PM PDT
Moon 1:44 AM PDT 4:06 PM PDT
Length of Visible Light 13h 15m
Length of Day
12h 20m
Tomorrow will be 2m 42s shorter.
Waning Crescent, 26% of the Moon is Illuminated
Today
Waning Crescent
Sep 24
New
Oct 1
First Quarter
Oct 8
Full
Oct 15
Last Quarter

Today's Extremes

State Highs State Lows

Community

WunderPhotos

Upload Photos

1,754,388 photos uploaded!

Nearby

Snow Depth

Station Depth Elevation
Echo Peak 1 in 7800 ft
Spratt Creek 1 in 6200 ft
Fallen Leaf 0 in 6300 ft
Heavenly Valley 0 in 8850 ft
Tahoe City Cross 0 in 6750 ft

Earthquake Activity

City Distance Mag. Time & Date
Lakeview, Oregon 112 miles 3.0 10:14 AM PDT
2014-09-17
Lakeview, Oregon 112 miles 2.6 1:34 PM PDT
2014-09-16
Lakeview, Oregon 111 miles 2.5 4:10 AM PDT
2014-09-16
Lakeview, Oregon 112 miles 3.0 4:23 PM PDT
2014-09-15
Minimum magnitude displayed is 2.5.

Coastal Water Temperatures

Place Temperature
No Stations Reporting

Nearby Weather Stations